Proud — 9HWA9 — position and weather

sailwx.info

Track history (hours):
 
Tides and Currents Weather Stations Pressure Air Temp Water Temp Dewpoint Dewpoint Depression Visibility Wind Speed Wind Dir Waves Ship Positions

Proud

Last reported at 2016-May-17 00:33 UTC. Time now 2016-May-26 16:23 UTC.
Position N 01°55' E 102°19'.
Warning: this ship's position is 9 days out of date.

Length 292 m; draft 16 m.

Type: Cargo ship. MMSI: 249619000.

Date/timePositionNaut miles runAvg speedWind from/ knotsBaromVisibWave heightAir tempDewpointWater temp
2016-May-17 00:33N 01°55' E 102°19'1111.3
2016-May-16 23:32N 01°50' E 102°29'1111.1
2016-May-16 22:33N 01°46' E 102°39'1510.8
2016-May-16 21:11N 01°40' E 102°53'4611.6
2016-May-16 17:15N 01°13' E 103°29'811.3
2016-May-16 16:32N 01°11' E 103°37'1010.2
2016-May-16 15:33N 01°10' E 103°47'10 9.9
2016-May-16 14:33N 01°14' E 103°56'2 2.0
2016-May-16 13:31N 01°16' E 103°56'0 0.0
2016-May-16 12:31N 01°16' E 103°56'0 0.0
2016-May-16 11:28N 01°17' E 103°56'0 0.1
2016-May-16 10:31N 01°16' E 103°56'0 0.0
2016-May-16 09:31N 01°17' E 103°56'0 0.2
2016-May-16 08:19N 01°17' E 103°56'0 0.1
2016-May-16 07:28N 01°17' E 103°56'0 0.0
2016-May-16 05:31N 01°17' E 103°56'0 0.0
2016-May-16 04:31N 01°17' E 103°56'0 0.0
2016-May-16 03:19N 01°17' E 103°56'0 0.0
2016-May-16 02:25N 01°17' E 103°56'0 0.0
2016-May-16 01:19N 01°17' E 103°56'0 0.0
2016-May-16 00:31N 01°17' E 103°56'0 0.1
2016-May-15 23:25N 01°16' E 103°56'1 1.5
2016-May-15 22:33N 01°16' E 103°57'7 6.5
2016-May-15 21:32N 01°16' E 104°04'  
Track history (hours):
 
Tides and Currents Weather Stations Pressure Air Temp Water Temp Dewpoint Dewpoint Depression Visibility Wind Speed Wind Dir Waves Ship Positions

Proud

Last reported at 2016-May-17 00:33 UTC. Time now 2016-May-26 16:23 UTC.
Position N 01°55' E 102°19'.
Warning: this ship's position is 9 days out of date.

Length 292 m; draft 16 m.

Type: Cargo ship. MMSI: 249619000.

Date/timePositionNaut miles runAvg speedWind from/ knotsBaromVisibWave heightAir tempDewpointWater temp
2016-May-17 00:33N 01°55' E 102°19'1111.3
2016-May-16 23:32N 01°50' E 102°29'1111.1
2016-May-16 22:33N 01°46' E 102°39'1510.8
2016-May-16 21:11N 01°40' E 102°53'4611.6
2016-May-16 17:15N 01°13' E 103°29'811.3
2016-May-16 16:32N 01°11' E 103°37'1010.2
2016-May-16 15:33N 01°10' E 103°47'10 9.9
2016-May-16 14:33N 01°14' E 103°56'2 2.0
2016-May-16 13:31N 01°16' E 103°56'0 0.0
2016-May-16 12:31N 01°16' E 103°56'0 0.0
2016-May-16 11:28N 01°17' E 103°56'0 0.1
2016-May-16 10:31N 01°16' E 103°56'0 0.0
2016-May-16 09:31N 01°17' E 103°56'0 0.2
2016-May-16 08:19N 01°17' E 103°56'0 0.1
2016-May-16 07:28N 01°17' E 103°56'0 0.0
2016-May-16 05:31N 01°17' E 103°56'0 0.0
2016-May-16 04:31N 01°17' E 103°56'0 0.0
2016-May-16 03:19N 01°17' E 103°56'0 0.0
2016-May-16 02:25N 01°17' E 103°56'0 0.0
2016-May-16 01:19N 01°17' E 103°56'0 0.0
2016-May-16 00:31N 01°17' E 103°56'0 0.1
2016-May-15 23:25N 01°16' E 103°56'1 1.5
2016-May-15 22:33N 01°16' E 103°57'7 6.5
2016-May-15 21:32N 01°16' E 104°04'  

Dump ship's entire track history